createdAt,value
2023-04-30T00:01:35.004Z,101630.13
2023-04-30T00:06:36.859Z,101616.81
2023-04-30T00:11:38.721Z,101626.47
2023-04-30T00:16:40.686Z,101616.66
2023-04-30T00:21:42.682Z,101615.81
2023-04-30T00:26:44.494Z,101625.59
2023-04-30T00:31:46.398Z,101626.50
2023-04-30T00:36:48.167Z,101621.19
2023-04-30T00:41:49.899Z,101618.66
2023-04-30T00:46:51.650Z,101628.25
2023-04-30T00:51:54.417Z,101630.28
2023-04-30T00:56:56.445Z,101618.56
2023-04-30T01:01:58.313Z,101621.25
2023-04-30T01:07:02.443Z,101623.09
2023-04-30T01:12:35.309Z,101617.78
2023-04-30T01:18:00.552Z,101609.75
2023-04-30T01:23:11.285Z,101611.47
2023-04-30T01:28:17.411Z,101607.13
2023-04-30T01:33:19.181Z,101602.69
2023-04-30T01:38:39.351Z,101607.22
2023-04-30T01:44:01.448Z,101601.94
2023-04-30T01:49:40.947Z,101610.72
2023-04-30T01:54:53.153Z,101613.25
2023-04-30T01:59:55.636Z,101614.06
2023-04-30T02:04:57.750Z,101617.78
2023-04-30T02:09:59.509Z,101626.66
2023-04-30T02:15:02.342Z,101621.38
2023-04-30T02:20:04.910Z,101619.56
2023-04-30T02:25:07.196Z,101626.56
2023-04-30T02:30:09.173Z,101626.66
2023-04-30T02:35:11.020Z,101624.16
2023-04-30T02:40:12.987Z,101623.22
2023-04-30T02:45:15.185Z,101624.00
2023-04-30T02:50:17.064Z,101618.72
2023-04-30T02:55:18.987Z,101617.06
2023-04-30T03:00:21.127Z,101608.03
2023-04-30T03:05:23.427Z,101601.88
2023-04-30T03:10:25.707Z,101601.13
2023-04-30T03:15:27.504Z,101597.47
2023-04-30T03:20:29.315Z,101594.00
2023-04-30T03:25:31.132Z,101597.56
2023-04-30T03:30:32.935Z,101600.13
2023-04-30T03:35:35.037Z,101604.56
2023-04-30T03:40:36.818Z,101614.25
2023-04-30T03:45:38.595Z,101619.81
2023-04-30T03:50:40.548Z,101618.91
2023-04-30T03:55:42.825Z,101624.91
2023-04-30T04:00:46.036Z,101620.63
2023-04-30T04:05:48.054Z,101618.03
2023-04-30T04:10:50.009Z,101624.28
2023-04-30T04:15:51.809Z,101619.75
2023-04-30T04:20:56.381Z,101618.91
2023-04-30T04:25:58.147Z,101625.84
2023-04-30T04:31:00.287Z,101631.22
2023-04-30T04:36:02.133Z,101632.94
2023-04-30T04:41:03.907Z,101629.50
2023-04-30T04:46:05.795Z,101633.94
2023-04-30T04:51:07.580Z,101637.47
2023-04-30T04:56:09.414Z,101648.28
2023-04-30T05:01:11.665Z,101648.28
2023-04-30T05:06:13.509Z,101649.31
2023-04-30T05:11:15.926Z,101642.91
2023-04-30T05:16:18.013Z,101642.16
2023-04-30T05:21:19.864Z,101641.91
2023-04-30T05:26:23.818Z,101640.19
2023-04-30T05:31:25.646Z,101644.69
2023-04-30T05:36:28.766Z,101637.72
2023-04-30T05:41:30.576Z,101637.97
2023-04-30T05:46:32.778Z,101640.81
2023-04-30T05:51:34.627Z,101653.66
2023-04-30T05:56:36.484Z,101662.03
2023-04-30T06:01:38.378Z,101662.47
2023-04-30T06:06:40.423Z,101663.13
2023-04-30T06:11:42.709Z,101661.00
2023-04-30T06:16:45.693Z,101660.81
2023-04-30T06:21:47.514Z,101668.69
2023-04-30T06:26:49.240Z,101658.91
2023-04-30T06:31:52.036Z,101663.63
2023-04-30T06:36:54.040Z,101658.00
2023-04-30T06:41:56.041Z,101662.34
2023-04-30T06:46:57.806Z,101656.94
2023-04-30T06:51:59.811Z,101657.19
2023-04-30T06:57:02.160Z,101656.22
2023-04-30T07:02:03.990Z,101664.47
2023-04-30T07:07:05.820Z,101661.66
2023-04-30T07:12:07.662Z,101665.06
2023-04-30T07:17:09.532Z,101659.00
2023-04-30T07:22:11.696Z,101665.19
2023-04-30T07:27:13.649Z,101655.22
2023-04-30T07:32:16.676Z,101657.03
2023-04-30T07:37:18.437Z,101655.22
2023-04-30T07:42:20.253Z,101647.63
2023-04-30T07:47:22.183Z,101644.56
2023-04-30T07:52:24.088Z,101642.72
2023-04-30T07:57:28.994Z,101639.19
2023-04-30T08:02:31.369Z,101641.06
2023-04-30T08:07:33.276Z,101640.03
2023-04-30T08:12:37.388Z,101644.38
2023-04-30T08:17:39.247Z,101642.66
2023-04-30T08:22:41.096Z,101640.00
2023-04-30T08:27:42.991Z,101639.84
2023-04-30T08:32:44.812Z,101636.84
2023-04-30T08:37:46.625Z,101637.06
2023-04-30T08:43:00.372Z,101632.69
2023-04-30T08:48:04.883Z,101635.84
2023-04-30T08:53:08.739Z,101628.81
2023-04-30T08:58:13.407Z,101632.63
2023-04-30T09:03:15.430Z,101631.81
2023-04-30T09:08:19.199Z,101633.56
2023-04-30T09:13:21.082Z,101623.66
2023-04-30T09:18:22.899Z,101636.19
2023-04-30T09:23:25.412Z,101629.63
2023-04-30T09:28:29.063Z,101629.84
2023-04-30T09:33:46.713Z,101629.69
2023-04-30T09:38:48.626Z,101629.03
2023-04-30T09:43:50.796Z,101616.25
2023-04-30T09:49:04.127Z,101624.47
2023-04-30T09:54:08.180Z,101619.03
2023-04-30T09:59:11.658Z,101621.78
2023-04-30T10:09:38.575Z,101613.19
2023-04-30T10:14:45.815Z,101602.25
2023-04-30T10:19:55.470Z,101601.28
2023-04-30T10:24:57.723Z,101597.31
2023-04-30T10:30:00.310Z,101593.78
2023-04-30T10:35:23.813Z,101595.56
2023-04-30T10:40:29.023Z,101589.84
2023-04-30T10:45:44.165Z,101579.31
2023-04-30T10:50:47.154Z,101566.50
2023-04-30T10:55:53.748Z,101563.88
2023-04-30T11:01:18.152Z,101560.00
2023-04-30T11:06:20.382Z,101559.22
2023-04-30T11:11:24.137Z,101550.66
2023-04-30T11:16:35.236Z,101543.56
2023-04-30T11:22:03.545Z,101537.13
2023-04-30T11:27:09.587Z,101541.78
2023-04-30T11:32:12.001Z,101535.13
2023-04-30T11:37:20.227Z,101520.00
2023-04-30T11:42:22.364Z,101520.41
2023-04-30T11:47:24.595Z,101515.69
2023-04-30T11:52:27.122Z,101509.16
2023-04-30T11:57:35.764Z,101507.81
2023-04-30T12:02:37.900Z,101503.16
2023-04-30T12:07:40.341Z,101500.03
2023-04-30T12:12:44.611Z,101484.84
2023-04-30T12:17:47.060Z,101479.38
2023-04-30T12:22:49.601Z,101481.06
2023-04-30T12:27:54.735Z,101474.09
2023-04-30T12:33:00.714Z,101475.75
2023-04-30T12:38:08.323Z,101475.84
2023-04-30T12:43:10.233Z,101459.22
2023-04-30T12:48:12.585Z,101462.41
2023-04-30T12:53:14.637Z,101458.69
2023-04-30T12:58:17.174Z,101454.06
2023-04-30T13:03:21.463Z,101449.94
2023-04-30T13:08:24.085Z,101442.53
2023-04-30T13:13:26.972Z,101430.16
2023-04-30T13:18:28.895Z,101426.56
2023-04-30T13:23:35.952Z,101425.81
2023-04-30T13:28:43.716Z,101422.19
2023-04-30T13:33:45.669Z,101422.34
2023-04-30T13:38:47.861Z,101416.84
2023-04-30T13:43:50.028Z,101414.78
2023-04-30T13:48:53.731Z,101407.38
2023-04-30T13:53:55.904Z,101410.00
2023-04-30T13:58:57.816Z,101392.13
2023-04-30T14:04:00.031Z,101385.22
2023-04-30T14:09:02.369Z,101383.94
2023-04-30T14:14:04.544Z,101364.47
2023-04-30T14:19:06.542Z,101372.53
2023-04-30T14:24:09.526Z,101368.91
2023-04-30T14:29:11.825Z,101365.50
2023-04-30T14:34:14.588Z,101357.06
2023-04-30T14:39:16.900Z,101359.88
2023-04-30T14:44:19.380Z,101353.25
2023-04-30T14:49:21.488Z,101348.44
2023-04-30T14:54:23.866Z,101340.06
2023-04-30T14:59:25.946Z,101339.06
2023-04-30T15:04:27.819Z,101335.31
2023-04-30T15:09:29.795Z,101333.00
2023-04-30T15:14:31.980Z,101320.84
2023-04-30T15:19:33.987Z,101321.22
2023-04-30T15:24:36.804Z,101317.56
2023-04-30T15:29:40.707Z,101324.16
2023-04-30T15:34:42.798Z,101313.50
2023-04-30T15:39:44.752Z,101313.47
2023-04-30T15:44:47.034Z,101296.22
2023-04-30T15:49:49.112Z,101293.63
2023-04-30T15:54:51.637Z,101286.88
2023-04-30T15:59:53.876Z,101283.66
2023-04-30T16:04:56.136Z,101279.25
2023-04-30T16:10:00.045Z,101277.81
2023-04-30T16:15:02.328Z,101283.53
2023-04-30T16:20:04.916Z,101274.75
2023-04-30T16:25:08.773Z,101275.22
2023-04-30T16:30:11.103Z,101272.41
2023-04-30T16:35:12.970Z,101266.88
2023-04-30T16:40:15.064Z,101258.72
2023-04-30T16:45:17.309Z,101257.13
2023-04-30T16:50:19.449Z,101250.88
2023-04-30T16:55:21.534Z,101244.59
2023-04-30T17:00:23.555Z,101243.75
2023-04-30T17:05:26.635Z,101240.06
2023-04-30T17:10:30.434Z,101230.44
2023-04-30T17:15:32.726Z,101221.66
2023-04-30T17:20:35.520Z,101224.06
2023-04-30T17:25:38.560Z,101219.69
2023-04-30T17:30:42.344Z,101216.88
2023-04-30T17:35:44.385Z,101216.31
2023-04-30T17:40:46.404Z,101218.03
2023-04-30T17:45:48.509Z,101212.88
2023-04-30T17:50:50.914Z,101215.47
2023-04-30T17:55:52.799Z,101211.13
2023-04-30T18:00:57.368Z,101205.41
2023-04-30T18:05:59.390Z,101200.88
2023-04-30T18:11:03.718Z,101200.75
2023-04-30T18:16:05.958Z,101206.09
2023-04-30T18:21:09.171Z,101202.44
2023-04-30T18:26:11.418Z,101207.09
2023-04-30T18:31:13.730Z,101195.53
2023-04-30T18:36:15.753Z,101196.16
2023-04-30T18:41:17.854Z,101193.72
2023-04-30T18:46:20.362Z,101192.00
2023-04-30T18:51:22.722Z,101194.44
2023-04-30T18:56:24.957Z,101195.38
2023-04-30T19:01:27.706Z,101196.94
2023-04-30T19:06:31.097Z,101204.81
2023-04-30T19:11:35.947Z,101209.34
2023-04-30T19:16:41.912Z,101201.34
2023-04-30T19:21:44.235Z,101200.41
2023-04-30T19:26:46.375Z,101206.81
2023-04-30T19:31:48.749Z,101212.16
2023-04-30T19:36:50.989Z,101207.84
2023-04-30T19:41:53.464Z,101213.00
2023-04-30T19:46:56.784Z,101216.75
2023-04-30T19:51:59.017Z,101225.78
2023-04-30T19:57:02.330Z,101229.69
2023-04-30T20:02:04.497Z,101212.88
2023-04-30T20:07:07.303Z,101216.56
2023-04-30T20:12:10.052Z,101212.00
2023-04-30T20:17:13.843Z,101208.47
2023-04-30T20:22:15.930Z,101210.13
2023-04-30T20:27:18.018Z,101215.47
2023-04-30T20:32:19.926Z,101211.13
2023-04-30T20:37:21.835Z,101207.59
2023-04-30T20:42:23.816Z,101205.78
2023-04-30T20:47:26.052Z,101204.38
2023-04-30T20:52:28.077Z,101210.44
2023-04-30T20:57:30.330Z,101207.06
2023-04-30T21:02:32.406Z,101202.94
2023-04-30T21:07:37.427Z,101200.47
2023-04-30T21:12:39.225Z,101200.41
2023-04-30T21:17:41.313Z,101192.56
2023-04-30T21:22:43.570Z,101187.31
2023-04-30T21:27:45.928Z,101181.91
2023-04-30T21:32:48.332Z,101173.28
2023-04-30T21:37:50.712Z,101178.47
2023-04-30T21:42:53.372Z,101175.81
2023-04-30T21:47:55.761Z,101170.53
2023-04-30T21:52:57.955Z,101172.97
2023-04-30T21:57:59.774Z,101162.56
2023-04-30T22:03:01.834Z,101166.94
2023-04-30T22:08:04.414Z,101156.13
2023-04-30T22:13:06.545Z,101158.09
2023-04-30T22:18:08.882Z,101152.75
2023-04-30T22:23:11.016Z,101147.50
2023-04-30T22:28:13.380Z,101141.19
2023-04-30T22:33:15.597Z,101146.50
2023-04-30T22:38:17.803Z,101132.47
2023-04-30T22:43:19.893Z,101137.00
2023-04-30T22:48:22.629Z,101130.59
2023-04-30T22:53:24.866Z,101129.03
2023-04-30T22:58:27.104Z,101129.94
2023-04-30T23:03:29.043Z,101123.75
2023-04-30T23:08:31.482Z,101129.09
2023-04-30T23:13:33.507Z,101114.06
2023-04-30T23:18:38.675Z,101113.81
2023-04-30T23:23:41.123Z,101109.59
2023-04-30T23:28:43.275Z,101111.41
2023-04-30T23:33:45.255Z,101104.25
2023-04-30T23:38:47.517Z,101109.53
2023-04-30T23:43:49.509Z,101095.41
2023-04-30T23:48:52.222Z,101092.75
2023-04-30T23:53:54.291Z,101091.00
2023-04-30T23:58:56.276Z,101087.56
